UAL363 KEWR-PHNL
Flight info
| Callsign | UAL363 |
|---|---|
| Flight time | N/A |
| Altitude | 36000 |
| Route | COATE Q436 RAAKK Q440 SLLAP KP84O BECKY KP90I GEP TIMMR Q146 ZERZO/N0473F380 Q146 CUSDA KU12M BLUNT KS12G OLM J34 HQM C1418 SEDAR 45N130W 43N135W 40N140W/N0482F400 37N145W 33N150W 30N153W ZOULU/N0476F410 ZELDO/N0476F400 |
| Aircraft | B772/H-SDE2E3FGHIJ5LORVWXY/LB1D1 |
Departure
| Time | 2026-05-07 19:16 |
|---|---|
| Airport | Newark Liberty International Airport (KEWR) |
Arrival
| Time | N/A |
|---|---|
| Airport | Daniel K. Inouye International Airport (PHNL) |
| Time | Latitude | Longitude | Altitude | Speed | Heading |
|---|---|---|---|---|---|
| 2026-05-07 18:40 | 40.69906 | -74.18054 | 26 ft | 0 kts | 138° |
| 2026-05-07 19:01 | 40.69919 | -74.18070 | 26 ft | 3 kts | 132° |
| 2026-05-07 19:02 | 40.69933 | -74.18094 | 25 ft | 3 kts | 121° |
| 2026-05-07 19:02 | 40.69943 | -74.18122 | 24 ft | 3 kts | 101° |
| 2026-05-07 19:02 | 40.69944 | -74.18150 | 23 ft | 3 kts | 60° |
| 2026-05-07 19:02 | 40.69933 | -74.18164 | 24 ft | 1 kts | 10° |
| 2026-05-07 19:03 | 40.69951 | -74.18160 | 24 ft | 1 kts | 10° |
| 2026-05-07 19:03 | 40.69951 | -74.18159 | 24 ft | 0 kts | 10° |
| 2026-05-07 19:07 | 40.69967 | -74.18155 | 25 ft | 6 kts | 11° |
| 2026-05-07 19:07 | 40.69997 | -74.18126 | 26 ft | 7 kts | 62° |
| 2026-05-07 19:07 | 40.70002 | -74.18028 | 26 ft | 15 kts | 93° |
| 2026-05-07 19:08 | 40.69994 | -74.17892 | 26 ft | 15 kts | 94° |
| 2026-05-07 19:08 | 40.69986 | -74.17758 | 26 ft | 15 kts | 95° |
| 2026-05-07 19:08 | 40.69977 | -74.17622 | 26 ft | 15 kts | 95° |
| 2026-05-07 19:08 | 40.69968 | -74.17486 | 26 ft | 15 kts | 95° |
| 2026-05-07 19:09 | 40.69938 | -74.17354 | 26 ft | 15 kts | 116° |
| 2026-05-07 19:09 | 40.69877 | -74.17246 | 26 ft | 15 kts | 132° |
| 2026-05-07 19:09 | 40.69803 | -74.17151 | 26 ft | 15 kts | 139° |
| 2026-05-07 19:09 | 40.69720 | -74.17071 | 26 ft | 15 kts | 151° |
| 2026-05-07 19:10 | 40.69625 | -74.17016 | 26 ft | 15 kts | 161° |
| 2026-05-07 19:10 | 40.69524 | -74.16984 | 26 ft | 15 kts | 170° |
| 2026-05-07 19:10 | 40.69421 | -74.16971 | 26 ft | 15 kts | 178° |
| 2026-05-07 19:10 | 40.69319 | -74.16988 | 26 ft | 15 kts | 195° |
| 2026-05-07 19:11 | 40.69221 | -74.17034 | 28 ft | 15 kts | 204° |
| 2026-05-07 19:11 | 40.69129 | -74.17095 | 27 ft | 15 kts | 206° |
| 2026-05-07 19:11 | 40.69040 | -74.17151 | 31 ft | 17 kts | 206° |
| 2026-05-07 19:11 | 40.68919 | -74.17228 | 27 ft | 20 kts | 205° |
| 2026-05-07 19:12 | 40.68797 | -74.17305 | 26 ft | 20 kts | 206° |
| 2026-05-07 19:12 | 40.68672 | -74.17387 | 28 ft | 20 kts | 206° |
| 2026-05-07 19:12 | 40.68548 | -74.17465 | 27 ft | 20 kts | 205° |
| 2026-05-07 19:12 | 40.68423 | -74.17542 | 27 ft | 20 kts | 206° |
| 2026-05-07 19:13 | 40.68300 | -74.17621 | 26 ft | 20 kts | 206° |
| 2026-05-07 19:13 | 40.68176 | -74.17700 | 29 ft | 20 kts | 206° |
| 2026-05-07 19:13 | 40.68052 | -74.17779 | 30 ft | 20 kts | 206° |
| 2026-05-07 19:13 | 40.67929 | -74.17858 | 27 ft | 20 kts | 206° |
| 2026-05-07 19:14 | 40.67847 | -74.17911 | 27 ft | 20 kts | 206° |
| 2026-05-07 19:14 | 40.67731 | -74.17985 | 27 ft | 18 kts | 206° |
| 2026-05-07 19:14 | 40.67635 | -74.18041 | 27 ft | 13 kts | 191° |
| 2026-05-07 19:14 | 40.67569 | -74.17984 | 27 ft | 9 kts | 108° |
| 2026-05-07 19:15 | 40.67593 | -74.17913 | 27 ft | 9 kts | 31° |
| 2026-05-07 19:15 | 40.67624 | -74.17892 | 26 ft | 2 kts | 26° |
| 2026-05-07 19:15 | 40.67663 | -74.17867 | 32 ft | 18 kts | 26° |
| 2026-05-07 19:15 | 40.68166 | -74.17548 | 28 ft | 103 kts | 25° |
| 2026-05-07 19:16 | 40.68686 | -74.17220 | 28 ft | 141 kts | 26° |
| 2026-05-07 19:16 | 40.69708 | -74.16552 | 122 ft | 179 kts | 22° |
| 2026-05-07 19:16 | 40.70879 | -74.15814 | 574 ft | 196 kts | 23° |
| 2026-05-07 19:16 | 40.72002 | -74.14761 | 905 ft | 214 kts | 43° |
| 2026-05-07 19:17 | 40.73076 | -74.13342 | 1469 ft | 221 kts | 41° |
| 2026-05-07 19:17 | 40.74216 | -74.11943 | 1990 ft | 228 kts | 39° |
| 2026-05-07 19:17 | 40.75427 | -74.10540 | 2413 ft | 234 kts | 31° |
| 2026-05-07 19:17 | 40.76964 | -74.09955 | 2850 ft | 233 kts | 355° |
| 2026-05-07 19:18 | 40.78451 | -74.10681 | 3315 ft | 233 kts | 318° |
| 2026-05-07 19:18 | 40.79254 | -74.12500 | 3829 ft | 232 kts | 285° |
| 2026-05-07 19:18 | 40.79565 | -74.14600 | 4288 ft | 236 kts | 281° |
| 2026-05-07 19:18 | 40.79893 | -74.16707 | 4831 ft | 234 kts | 286° |
| 2026-05-07 19:19 | 40.80359 | -74.18773 | 5373 ft | 234 kts | 288° |
| 2026-05-07 19:19 | 40.80844 | -74.20825 | 5898 ft | 235 kts | 288° |
| 2026-05-07 19:19 | 40.81334 | -74.22888 | 6408 ft | 236 kts | 289° |
| 2026-05-07 19:19 | 40.81924 | -74.24920 | 6699 ft | 242 kts | 302° |
| 2026-05-07 19:20 | 40.82982 | -74.26705 | 6939 ft | 253 kts | 312° |
| 2026-05-07 19:20 | 40.84185 | -74.28392 | 7461 ft | 254 kts | 311° |
| 2026-05-07 19:20 | 40.85378 | -74.30135 | 7726 ft | 261 kts | 313° |
| 2026-05-07 19:20 | 40.86688 | -74.31785 | 8168 ft | 260 kts | 314° |
| 2026-05-07 19:21 | 40.87935 | -74.33545 | 8465 ft | 264 kts | 310° |
| 2026-05-07 19:21 | 40.89182 | -74.35327 | 8934 ft | 265 kts | 311° |
| 2026-05-07 19:21 | 40.90454 | -74.37106 | 9458 ft | 267 kts | 310° |
| 2026-05-07 19:21 | 40.91732 | -74.38882 | 9956 ft | 267 kts | 309° |
| 2026-05-07 19:22 | 40.93021 | -74.40686 | 10266 ft | 276 kts | 308° |
| 2026-05-07 19:22 | 40.94375 | -74.42587 | 10399 ft | 291 kts | 308° |
| 2026-05-07 19:22 | 40.95800 | -74.44594 | 10527 ft | 307 kts | 308° |
| 2026-05-07 19:22 | 40.97308 | -74.46709 | 10670 ft | 326 kts | 308° |
| 2026-05-07 19:23 | 40.98902 | -74.48931 | 11041 ft | 338 kts | 308° |
| 2026-05-07 19:23 | 41.00542 | -74.51212 | 11595 ft | 345 kts | 308° |
| 2026-05-07 19:23 | 41.02207 | -74.53527 | 12333 ft | 346 kts | 306° |
| 2026-05-07 19:23 | 41.03865 | -74.55843 | 13066 ft | 347 kts | 306° |
| 2026-05-07 19:24 | 41.05536 | -74.58179 | 13751 ft | 352 kts | 306° |
| 2026-05-07 19:24 | 41.07228 | -74.60554 | 14452 ft | 356 kts | 305° |
| 2026-05-07 19:24 | 41.08927 | -74.62936 | 15181 ft | 356 kts | 305° |
| 2026-05-07 19:24 | 41.10640 | -74.65335 | 15803 ft | 360 kts | 305° |
| 2026-05-07 19:25 | 41.12351 | -74.67768 | 16386 ft | 361 kts | 303° |
| 2026-05-07 19:25 | 41.13904 | -74.70370 | 16943 ft | 359 kts | 297° |
| 2026-05-07 19:25 | 41.15242 | -74.73151 | 17550 ft | 357 kts | 292° |
| 2026-05-07 19:25 | 41.16485 | -74.76011 | 18110 ft | 359 kts | 292° |
| 2026-05-07 19:26 | 41.17730 | -74.78895 | 18667 ft | 360 kts | 292° |
| 2026-05-07 19:26 | 41.18977 | -74.81787 | 19220 ft | 362 kts | 291° |
| 2026-05-07 19:26 | 41.20233 | -74.84696 | 19749 ft | 363 kts | 291° |
| 2026-05-07 19:26 | 41.21495 | -74.87611 | 20255 ft | 366 kts | 291° |
| 2026-05-07 19:27 | 41.22769 | -74.90548 | 20709 ft | 367 kts | 291° |
| 2026-05-07 19:27 | 41.24048 | -74.93500 | 21140 ft | 370 kts | 290° |
| 2026-05-07 19:27 | 41.25331 | -74.96464 | 21638 ft | 371 kts | 290° |
| 2026-05-07 19:27 | 41.26620 | -74.99438 | 22065 ft | 372 kts | 290° |
| 2026-05-07 19:28 | 41.27860 | -75.02296 | 22475 ft | 375 kts | 290° |
| 2026-05-07 19:28 | 41.29174 | -75.05339 | 23044 ft | 374 kts | 290° |
| 2026-05-07 19:28 | 41.30471 | -75.08344 | 23462 ft | 376 kts | 289° |
| 2026-05-07 19:28 | 41.31771 | -75.11376 | 23833 ft | 377 kts | 289° |
| 2026-05-07 19:29 | 41.33079 | -75.14416 | 24199 ft | 380 kts | 289° |
| 2026-05-07 19:29 | 41.34395 | -75.17469 | 24624 ft | 381 kts | 289° |
| 2026-05-07 19:29 | 41.35717 | -75.20532 | 25049 ft | 382 kts | 288° |
| 2026-05-07 19:29 | 41.37020 | -75.23567 | 25405 ft | 384 kts | 288° |
| 2026-05-07 19:30 | 41.38369 | -75.26704 | 25829 ft | 386 kts | 288° |
| 2026-05-07 19:30 | 41.39704 | -75.29819 | 26190 ft | 388 kts | 288° |
| 2026-05-07 19:30 | 41.41038 | -75.32947 | 26469 ft | 391 kts | 288° |
| 2026-05-07 19:30 | 41.42373 | -75.36067 | 26806 ft | 394 kts | 288° |
| 2026-05-07 19:31 | 41.43732 | -75.39238 | 27161 ft | 395 kts | 288° |
| 2026-05-07 19:31 | 41.45096 | -75.42429 | 27483 ft | 397 kts | 288° |
| 2026-05-07 19:31 | 41.46466 | -75.45636 | 27769 ft | 399 kts | 288° |
| 2026-05-07 19:31 | 41.47738 | -75.48899 | 28045 ft | 395 kts | 284° |
| 2026-05-07 19:32 | 41.48779 | -75.52265 | 28354 ft | 391 kts | 281° |
| 2026-05-07 19:32 | 41.49737 | -75.55663 | 28652 ft | 393 kts | 281° |
| 2026-05-07 19:32 | 41.50710 | -75.59081 | 28860 ft | 396 kts | 281° |
| 2026-05-07 19:32 | 41.51695 | -75.62525 | 29047 ft | 399 kts | 281° |
| 2026-05-07 19:33 | 41.52689 | -75.65991 | 29284 ft | 400 kts | 281° |
| 2026-05-07 19:33 | 41.53687 | -75.69464 | 29512 ft | 402 kts | 281° |
| 2026-05-07 19:33 | 41.54689 | -75.72951 | 29704 ft | 403 kts | 281° |
| 2026-05-07 19:33 | 41.55693 | -75.76456 | 29967 ft | 404 kts | 281° |
| 2026-05-07 19:34 | 41.56689 | -75.79942 | 30330 ft | 401 kts | 281° |
| 2026-05-07 19:34 | 41.57682 | -75.83424 | 30596 ft | 401 kts | 281° |
| 2026-05-07 19:34 | 41.58675 | -75.86911 | 30853 ft | 401 kts | 281° |
| 2026-05-07 19:34 | 41.59659 | -75.90390 | 31094 ft | 400 kts | 281° |
| 2026-05-07 19:35 | 41.60639 | -75.93869 | 31396 ft | 399 kts | 281° |
| 2026-05-07 19:35 | 41.61612 | -75.97332 | 31673 ft | 398 kts | 281° |
| 2026-05-07 19:35 | 41.62554 | -76.00690 | 31914 ft | 398 kts | 281° |
| 2026-05-07 19:35 | 41.63527 | -76.04157 | 32108 ft | 399 kts | 281° |